Time;durP1;ratioP1;P1;durP2;ratioP2;P2;SDS_P1;SDS_P2;PMS_P1;PMS_P2;Temp;Humidity;BMP_temperature;BMP_pressure;BME280_temperature;BME280_humidity;BME280_pressure;Samples;Min_cycle;Max_cycle;Signal;HPM_P1;HPM_P2
2022/05/21 00:01:08;;;;;;;9.27;3.45;;;;;;;12.06;100.00;100832.69;4899808;29;20040;-80
2022/05/21 00:03:34;;;;;;;9.40;2.80;;;;;;;12.17;100.00;100850.94;4900509;29;20043;-80
2022/05/21 00:05:59;;;;;;;12.43;3.10;;;;;;;12.17;100.00;100844.72;4900823;29;20084;-79
2022/05/21 00:08:25;;;;;;;11.82;2.72;;;;;;;12.10;100.00;100838.50;4884835;29;20034;-80
2022/05/21 00:10:50;;;;;;;10.35;2.88;;;;;;;12.11;100.00;100845.56;4901418;29;20029;-80
2022/05/21 00:13:15;;;;;;;9.88;2.78;;;;;;;12.06;100.00;100846.19;4886573;29;20036;-79
2022/05/21 00:15:41;;;;;;;10.80;2.83;;;;;;;12.05;100.00;100851.78;4909685;29;20036;-80
2022/05/21 00:18:07;;;;;;;14.40;2.63;;;;;;;12.02;100.00;100855.75;4908644;29;20028;-80
2022/05/21 00:20:47;;;;;;;8.60;2.20;;;;;;;11.97;100.00;100850.94;4909808;29;20084;-80
2022/05/21 00:23:16;;;;;;;7.60;1.70;;;;;;;11.89;100.00;100855.72;4910162;29;20020;-80
2022/05/21 00:25:44;;;;;;;6.43;1.60;;;;;;;11.87;100.00;100845.13;4905668;29;20047;-80
2022/05/21 00:28:10;;;;;;;7.13;1.65;;;;;;;11.90;100.00;100849.28;4900005;29;20112;-80
2022/05/21 00:30:36;;;;;;;7.15;1.50;;;;;;;11.97;100.00;100842.84;4886036;29;20060;-79
2022/05/21 00:33:02;;;;;;;8.25;1.67;;;;;;;12.00;100.00;100836.22;4889555;29;20032;-80
2022/05/21 00:35:28;;;;;;;6.47;1.52;;;;;;;12.05;100.00;100832.88;4906015;29;20024;-80
2022/05/21 00:37:53;;;;;;;5.78;1.63;;;;;;;11.98;100.00;100806.75;4884883;29;20186;-80
2022/05/21 00:40:21;;;;;;;8.40;1.85;;;;;;;12.06;100.00;100800.34;4900175;29;20071;-80
2022/05/21 00:42:47;;;;;;;10.57;1.52;;;;;;;12.19;100.00;100816.50;4901210;29;20119;-80
2022/05/21 00:45:14;;;;;;;11.63;1.58;;;;;;;12.27;100.00;100807.34;4899358;29;20119;-80
2022/05/21 00:47:39;;;;;;;6.95;1.35;;;;;;;12.37;100.00;100807.75;4898648;29;20501;-80
2022/05/21 00:50:08;;;;;;;8.63;1.52;;;;;;;12.54;100.00;100805.41;4900944;29;20036;-79
2022/05/21 00:52:36;;;;;;;5.75;1.63;;;;;;;12.72;100.00;100796.66;4899688;29;20031;-80
2022/05/21 00:55:20;;;;;;;5.93;1.70;;;;;;;12.81;100.00;100808.84;4901828;29;20117;-80
2022/05/21 01:00:42;;;;;;;5.65;1.38;;;;;;;12.90;100.00;100812.97;4891640;29;20471;-80
2022/05/21 01:03:09;;;;;;;9.65;1.83;;;;;;;12.79;100.00;100794.75;4880883;29;20069;-80
2022/05/21 01:05:37;;;;;;;12.30;2.22;;;;;;;12.93;100.00;100809.03;4899051;29;20029;-80
2022/05/21 01:08:05;;;;;;;5.95;1.50;;;;;;;12.91;100.00;100805.69;4890492;29;20020;-80
2022/05/21 01:10:35;;;;;;;9.82;1.70;;;;;;;12.80;100.00;100796.41;4891136;29;20075;-80
2022/05/21 01:13:03;;;;;;;9.13;1.70;;;;;;;12.81;100.00;100810.72;4897705;29;20040;-80
2022/05/21 01:15:33;;;;;;;11.85;2.15;;;;;;;12.73;100.00;100792.91;4892657;29;20456;-80
2022/05/21 01:17:58;;;;;;;9.18;1.73;;;;;;;12.83;100.00;100822.16;4896278;29;20043;-80
2022/05/21 01:20:39;;;;;;;12.48;1.92;;;;;;;12.81;100.00;100822.34;4901189;29;20139;-80
2022/05/21 01:23:05;;;;;;;8.75;1.98;;;;;;;12.76;100.00;100811.38;4899364;29;20550;-80
2022/05/21 01:25:35;;;;;;;6.95;1.65;;;;;;;12.72;100.00;100814.72;4899048;29;20036;-80
2022/05/21 01:28:01;;;;;;;10.90;1.85;;;;;;;12.62;100.00;100802.50;4901072;29;20092;-80
2022/05/21 01:30:48;;;;;;;6.10;1.50;;;;;;;12.65;100.00;100812.06;4899411;29;20024;-80
2022/05/21 01:33:15;;;;;;;8.13;1.73;;;;;;;12.65;100.00;100823.69;4886303;29;20059;-80
2022/05/21 01:35:43;;;;;;;7.90;1.77;;;;;;;12.68;100.00;100815.16;4900065;29;20035;-80
2022/05/21 01:38:10;;;;;;;7.18;1.70;;;;;;;12.57;100.00;100805.00;4898663;29;20080;-80
2022/05/21 01:40:36;;;;;;;7.55;1.77;;;;;;;12.69;100.00;100822.22;4900414;29;20024;-80
2022/05/21 01:45:48;;;;;;;7.32;1.50;;;;;;;12.70;100.00;100823.03;4907940;29;20526;-80
2022/05/21 01:48:18;;;;;;;11.88;2.20;;;;;;;12.72;100.00;100810.16;4900009;29;20075;-80
2022/05/21 01:50:45;;;;;;;8.60;1.70;;;;;;;12.54;100.00;100781.13;4898359;29;20036;-80
2022/05/21 01:53:11;;;;;;;9.23;2.20;;;;;;;12.67;100.00;100791.88;4899550;29;20427;-80
2022/05/21 01:55:37;;;;;;;12.32;1.85;;;;;;;12.76;100.00;100803.28;4900203;29;20020;-80
2022/05/21 01:58:03;;;;;;;9.65;2.30;;;;;;;12.77;100.00;100801.41;4897093;29;20083;-80
2022/05/21 02:00:28;;;;;;;10.60;2.38;;;;;;;12.78;100.00;100803.06;4899463;29;20033;-80
2022/05/21 02:02:53;;;;;;;5.97;1.73;;;;;;;12.81;100.00;100799.94;4899710;29;20199;-80
2022/05/21 02:05:19;;;;;;;12.38;2.90;;;;;;;12.76;100.00;100795.19;4899077;29;20041;-80
2022/05/21 02:07:45;;;;;;;10.30;2.20;;;;;;;12.75;100.00;100792.69;4899714;29;20032;-80
2022/05/21 02:10:11;;;;;;;7.70;1.80;;;;;;;12.73;100.00;100795.59;4882424;29;20086;-80
2022/05/21 02:12:37;;;;;;;11.55;2.30;;;;;;;12.70;100.00;100786.06;4901506;29;20033;-81
2022/05/21 02:15:03;;;;;;;11.25;2.75;;;;;;;12.67;100.00;100786.47;4899828;29;20119;-80
2022/05/21 02:17:28;;;;;;;9.02;2.05;;;;;;;12.67;100.00;100778.38;4896655;29;20088;-80
2022/05/21 02:19:54;;;;;;;6.90;1.90;;;;;;;12.65;100.00;100776.97;4897791;29;20403;-80
2022/05/21 02:22:19;;;;;;;9.15;2.20;;;;;;;12.25;100.00;100706.94;4896785;29;20423;-80
2022/05/21 02:24:45;;;;;;;9.18;2.40;;;;;;;12.52;100.00;100748.16;4898520;29;20043;-80
2022/05/21 02:27:12;;;;;;;11.35;2.72;;;;;;;12.73;100.00;100781.28;4897779;29;20025;-80
2022/05/21 02:29:38;;;;;;;11.05;2.35;;;;;;;12.78;100.00;100778.75;4897015;29;20115;-80
2022/05/21 02:32:04;;;;;;;9.63;2.63;;;;;;;12.80;100.00;100779.38;4899133;29;20040;-80
2022/05/21 02:34:30;;;;;;;8.40;2.10;;;;;;;12.84;100.00;100780.59;4897909;29;20072;-80
2022/05/21 02:39:40;;;;;;;10.98;2.35;;;;;;;12.83;100.00;100773.56;4898347;29;20604;-80
2022/05/21 02:42:43;;;;;;;12.38;2.22;;;;;;;12.86;100.00;100770.44;4898695;29;20040;-80
2022/05/21 02:44:53;;;;;;;12.48;2.25;;;;;;;12.87;100.00;100772.06;4897169;29;20029;-80
2022/05/21 02:47:18;;;;;;;7.78;2.00;;;;;;;12.81;100.00;100770.22;4897201;29;20036;-79
2022/05/21 02:49:43;;;;;;;10.32;2.20;;;;;;;12.81;100.00;100778.31;4897865;29;20378;-80
2022/05/21 02:52:09;;;;;;;9.60;1.83;;;;;;;12.76;100.00;100780.84;4896863;29;20096;-79
2022/05/21 02:54:34;;;;;;;10.38;2.13;;;;;;;12.49;100.00;100748.56;4903037;29;20024;-80
2022/05/21 02:56:59;;;;;;;6.45;1.70;;;;;;;12.62;100.00;100778.22;4902117;29;20462;-80
2022/05/21 02:59:26;;;;;;;10.82;1.80;;;;;;;12.59;100.00;100786.72;4898255;29;20036;-80
2022/05/21 03:01:51;;;;;;;9.82;1.80;;;;;;;12.56;100.00;100776.34;4898313;29;20037;-80
2022/05/21 03:04:16;;;;;;;7.25;1.80;;;;;;;12.55;100.00;100781.94;4898449;29;20063;-80
2022/05/21 03:06:42;;;;;;;9.02;1.80;;;;;;;12.29;100.00;100734.31;4898442;29;20060;-80
2022/05/21 03:11:53;;;;;;;8.02;1.67;;;;;;;12.45;100.00;100766.22;4878889;29;20177;-80
2022/05/21 03:14:19;;;;;;;5.15;1.77;;;;;;;12.44;100.00;100772.66;4894451;29;20032;-80
2022/05/21 03:16:44;;;;;;;9.32;2.30;;;;;;;12.42;100.00;100770.19;4866087;29;20379;-79
2022/05/21 03:19:11;;;;;;;5.85;1.75;;;;;;;12.42;100.00;100767.47;4896548;29;20052;-80
2022/05/21 03:21:36;;;;;;;8.55;2.38;;;;;;;11.51;100.00;100611.03;4884775;29;20491;-80
2022/05/21 03:24:02;;;;;;;9.27;2.03;;;;;;;12.40;100.00;100763.31;4900706;29;20040;-80
2022/05/21 03:26:27;;;;;;;8.55;1.80;;;;;;;12.20;100.00;100742.63;4885479;29;20069;-80
2022/05/21 03:28:52;;;;;;;8.80;1.75;;;;;;;12.27;100.00;100764.19;4903363;29;20119;-79
2022/05/21 03:31:18;;;;;;;10.20;2.22;;;;;;;12.21;100.00;100765.84;4900502;29;20067;-80
2022/05/21 03:33:43;;;;;;;7.43;1.98;;;;;;;12.18;100.00;100768.97;4901668;29;20522;-80
2022/05/21 03:36:08;;;;;;;13.13;2.35;;;;;;;12.16;100.00;100762.97;4869853;29;20046;-80
2022/05/21 03:38:34;;;;;;;12.85;2.72;;;;;;;12.13;100.00;100755.31;4900992;29;20033;-80
2022/05/21 03:41:00;;;;;;;6.18;1.88;;;;;;;11.91;100.00;100726.91;4901138;29;20076;-80
2022/05/21 03:43:25;;;;;;;8.77;2.25;;;;;;;12.13;100.00;100757.16;4901862;29;20438;-80
2022/05/21 03:45:51;;;;;;;9.68;2.50;;;;;;;12.14;100.00;100756.13;4900055;29;20037;-80
2022/05/21 03:48:17;;;;;;;13.68;2.45;;;;;;;12.15;100.00;100761.31;4901637;29;20032;-80
2022/05/21 03:50:43;;;;;;;10.15;2.05;;;;;;;12.13;100.00;100752.59;4901462;29;20033;-80
2022/05/21 03:53:10;;;;;;;6.32;1.88;;;;;;;12.18;100.00;100760.88;4900820;29;20050;-79
2022/05/21 03:55:37;;;;;;;9.43;1.92;;;;;;;12.25;100.00;100766.28;4885286;29;20043;-80
2022/05/21 03:58:03;;;;;;;7.68;2.15;;;;;;;12.31;100.00;100765.41;4900585;29;20040;-80
2022/05/21 04:00:29;;;;;;;8.98;2.00;;;;;;;12.26;100.00;100759.03;4900507;29;20088;-80
2022/05/21 04:02:54;;;;;;;8.77;2.55;;;;;;;12.36;100.00;100764.81;4884335;29;20460;-80
2022/05/21 04:05:20;;;;;;;4.85;1.48;;;;;;;12.36;100.00;100767.50;4904524;29;20040;-80
2022/05/21 04:07:46;;;;;;;7.65;1.67;;;;;;;12.39;100.00;100772.47;4903845;29;20028;-80
2022/05/21 04:10:14;;;;;;;8.50;1.88;;;;;;;12.34;100.00;100765.00;4900073;29;20029;-80
2022/05/21 04:12:39;;;;;;;6.20;2.05;;;;;;;12.43;100.00;100765.59;4901114;29;20462;-80
2022/05/21 04:15:06;;;;;;;9.10;2.22;;;;;;;12.21;100.00;100741.56;4899508;29;20075;-80
2022/05/21 04:17:32;;;;;;;7.35;1.80;;;;;;;12.50;100.00;100771.81;4900988;29;20024;-80
2022/05/21 04:19:57;;;;;;;8.30;1.85;;;;;;;12.53;100.00;100760.59;4899820;29;20356;-80
2022/05/21 04:22:22;;;;;;;7.18;1.83;;;;;;;12.60;100.00;100765.97;4883624;29;20061;-80
2022/05/21 04:24:48;;;;;;;9.20;1.95;;;;;;;12.58;100.00;100768.03;4899954;29;20115;-80
2022/05/21 04:27:13;;;;;;;10.38;2.50;;;;;;;12.49;100.00;100753.13;4898927;29;20071;-80
2022/05/21 04:29:39;;;;;;;12.10;2.10;;;;;;;12.57;100.00;100763.69;4899865;29;20127;-80
2022/05/21 04:32:04;;;;;;;9.43;2.13;;;;;;;12.58;100.00;100760.78;4898401;29;20124;-79
2022/05/21 04:34:30;;;;;;;8.93;2.20;;;;;;;12.46;100.00;100763.31;4899039;29;20071;-80
2022/05/21 04:36:55;;;;;;;11.80;2.10;;;;;;;12.42;100.00;100762.09;4899883;29;20060;-80
2022/05/21 04:39:21;;;;;;;14.85;2.70;;;;;;;12.46;100.00;100775.97;4883127;29;20033;-80
2022/05/21 04:41:46;;;;;;;8.40;1.67;;;;;;;12.40;100.00;100779.53;4899921;29;20029;-80
2022/05/21 04:44:11;;;;;;;14.18;2.28;;;;;;;12.24;100.00;100740.31;4899227;29;20132;-80
2022/05/21 04:46:37;;;;;;;12.25;2.40;;;;;;;12.16;100.00;100746.78;4900436;29;20035;-80
2022/05/21 04:49:03;;;;;;;12.68;2.10;;;;;;;12.26;100.00;100767.94;4887607;29;20064;-80
2022/05/21 04:51:29;;;;;;;8.10;2.00;;;;;;;12.22;100.00;100778.31;4902195;29;20053;-80
2022/05/21 04:53:55;;;;;;;15.05;2.30;;;;;;;12.12;100.00;100769.84;4901187;29;20060;-80
2022/05/21 04:56:20;;;;;;;13.38;1.85;;;;;;;12.11;100.00;100778.13;4884850;29;20458;-80
2022/05/21 04:58:46;;;;;;;19.30;2.97;;;;;;;11.96;100.00;100757.59;4900725;29;20041;-81
2022/05/21 05:01:11;;;;;;;16.85;2.50;;;;;;;12.08;100.00;100776.66;4901866;29;20048;-81
2022/05/21 05:03:36;;;;;;;10.65;2.88;;;;;;;12.07;100.00;100777.72;4902509;29;20041;-81
2022/05/21 05:06:02;;;;;;;16.05;2.50;;;;;;;12.00;100.00;100779.59;4908784;29;20024;-82
2022/05/21 05:08:28;;;;;;;13.40;2.30;;;;;;;11.94;100.00;100772.34;4895506;29;20383;-82
2022/05/21 05:10:53;;;;;;;14.15;2.63;;;;;;;11.99;100.00;100775.25;4904534;29;20024;-80
2022/05/21 05:13:19;;;;;;;9.85;1.80;;;;;;;11.90;100.00;100765.72;4907567;29;20056;-82
2022/05/21 05:15:46;;;;;;;10.77;2.30;;;;;;;11.70;100.00;100739.56;4901832;29;20037;-82
2022/05/21 05:18:27;;;;;;;13.80;2.40;;;;;;;11.96;100.00;100764.88;4911110;29;20096;-81
2022/05/21 05:20:53;;;;;;;10.60;2.20;;;;;;;11.80;100.00;100747.22;4913943;29;20064;-82
2022/05/21 05:23:19;;;;;;;8.57;1.95;;;;;;;11.03;100.00;100630.13;5191012;23;20044;-83
2022/05/21 05:25:44;;;;;;;13.10;2.75;;;;;;;10.53;100.00;100557.00;4879182;29;20020;-83
2022/05/21 05:28:29;;;;;;;13.70;2.42;;;;;;;10.64;100.00;100559.09;4883379;29;20032;-82
2022/05/21 05:30:55;;;;;;;11.23;2.03;;;;;;;11.41;100.00;100694.97;4888052;29;20040;-84
2022/05/21 05:33:21;;;;;;;11.05;2.38;;;;;;;11.94;100.00;100772.34;4901568;29;20048;-83
2022/05/21 05:35:56;;;;;;;11.05;2.20;;;;;;;10.52;100.00;100579.56;4900399;29;20033;-84
2022/05/21 05:38:22;;;;;;;11.20;2.00;;;;;;;12.01;100.00;100802.81;4875558;29;20024;-83
2022/05/21 05:40:50;;;;;;;14.05;2.05;;;;;;;11.31;100.00;100689.19;4880872;29;20011;-84
2022/05/21 05:43:18;;;;;;;10.35;1.92;;;;;;;10.43;100.00;100545.78;4878803;29;20109;-82
2022/05/21 05:45:43;;;;;;;8.95;1.95;;;;;;;10.37;100.00;100565.47;4901455;29;20032;-83
2022/05/21 05:48:09;;;;;;;10.82;2.10;;;;;;;10.18;100.00;100534.75;4888030;29;20021;-85
2022/05/21 05:53:10;;;;;;;16.70;2.80;;;;;;;10.55;100.00;100597.97;5129068;23;20055;-82
2022/05/21 05:55:38;;;;;;;14.93;2.60;;;;;;;10.26;100.00;100554.25;4934809;29;20051;-82
2022/05/21 05:59:48;;;;;;;12.23;2.40;;;;;;;10.29;100.00;100564.59;4927289;29;20115;-80
2022/05/21 06:00:52;;;;;;;6.20;1.40;;;;;;;11.61;100.00;100785.78;4926547;29;20038;-83
2022/05/21 06:03:18;;;;;;;5.05;1.17;;;;;;;11.53;100.00;100767.97;4915896;29;20052;-82
2022/05/21 06:05:44;;;;;;;8.00;2.00;;;;;;;11.58;100.00;100784.31;4909768;29;20115;-81
2022/05/21 06:08:09;;;;;;;10.43;2.53;;;;;;;11.67;100.00;100795.75;4929880;29;20631;-82
2022/05/21 06:10:38;;;;;;;11.27;2.33;;;;;;;11.71;100.00;100799.69;4927548;29;20036;-82
2022/05/21 06:13:05;;;;;;;7.85;1.70;;;;;;;11.78;100.00;100792.41;4931781;29;20032;-83
2022/05/21 06:15:31;;;;;;;7.22;1.67;;;;;;;11.79;100.00;100795.94;4934059;29;20032;-82
2022/05/21 06:17:56;;;;;;;6.75;1.92;;;;;;;11.61;100.00;100765.06;4918736;29;20067;-82
2022/05/21 06:20:26;;;;;;;7.13;2.17;;;;;;;11.70;100.00;100801.56;4933980;29;20063;-82
2022/05/21 06:22:52;;;;;;;7.07;3.00;;;;;;;11.48;100.00;100784.72;4925615;29;20047;-82
2022/05/21 06:25:21;;;;;;;9.00;2.03;;;;;;;11.31;100.00;100799.63;4923439;29;20028;-80
2022/05/21 06:27:48;;;;;;;8.57;2.50;;;;;;;11.32;100.00;100803.16;4921753;29;20056;-81
2022/05/21 06:30:16;;;;;;;6.55;1.80;;;;;;;11.33;100.00;100804.81;4906291;29;20039;-80
2022/05/21 06:32:41;;;;;;;6.78;1.55;;;;;;;11.30;100.00;100806.06;4892342;29;20084;-82
2022/05/21 06:35:08;;;;;;;6.35;1.95;;;;;;;11.41;100.00;100800.06;4918168;29;20024;-80
2022/05/21 06:37:33;;;;;;;8.07;1.90;;;;;;;11.39;100.00;100814.75;4923718;29;20024;-81
2022/05/21 06:39:59;;;;;;;9.02;2.30;;;;;;;11.41;100.00;100810.84;4917391;29;20051;-82
2022/05/21 06:42:24;;;;;;;7.18;2.08;;;;;;;11.09;100.00;100757.72;4919845;29;20035;-83
2022/05/21 06:44:53;;;;;;;8.30;2.35;;;;;;;10.95;100.00;100751.47;4916080;29;20047;-83
2022/05/21 06:47:18;;;;;;;8.65;1.92;;;;;;;11.23;100.00;100813.28;4907005;29;20040;-82
2022/05/21 06:49:44;;;;;;;8.90;1.90;;;;;;;11.24;100.00;100823.84;4938891;29;20039;-82
2022/05/21 06:52:09;;;;;;;8.10;2.40;;;;;;;11.03;100.00;100789.00;4893447;29;20051;-83
2022/05/21 06:54:35;;;;;;;10.57;2.33;;;;;;;10.84;100.00;100768.22;4920035;29;20032;-82
2022/05/21 06:57:00;;;;;;;10.85;2.28;;;;;;;11.15;100.00;100825.06;4906778;29;20068;-83
2022/05/21 06:59:26;;;;;;;8.57;2.10;;;;;;;11.29;100.00;100829.47;4902422;29;20043;-84
2022/05/21 07:01:51;;;;;;;6.07;1.80;;;;;;;11.22;100.00;100803.53;4918706;29;20139;-83
2022/05/21 07:07:32;;;;;;;7.63;2.00;;;;;;;11.14;100.00;100804.56;4935195;29;20091;-81
2022/05/21 07:09:45;;;;;;;9.13;2.40;;;;;;;11.36;100.00;100823.28;4922209;29;20042;-80
2022/05/21 07:12:11;;;;;;;5.25;1.65;;;;;;;11.47;100.00;100828.06;4886187;29;20029;-80
2022/05/21 07:14:36;;;;;;;6.75;2.13;;;;;;;11.42;100.00;100809.81;4893979;29;20036;-79
2022/05/21 07:17:02;;;;;;;8.25;1.83;;;;;;;11.67;100.00;100826.22;4917696;29;20067;-79
2022/05/21 07:19:34;;;;;;;6.82;2.05;;;;;;;11.68;100.00;100824.34;4884488;29;20036;-81
2022/05/21 07:22:03;;;;;;;6.50;1.90;;;;;;;11.61;100.00;100827.03;4904146;29;20086;-81
2022/05/21 07:24:28;;;;;;;5.40;1.63;;;;;;;11.64;100.00;100828.50;4887965;29;20032;-80
2022/05/21 07:26:53;;;;;;;4.45;1.67;;;;;;;11.70;100.00;100833.91;4925297;29;20040;-81
2022/05/21 07:29:19;;;;;;;5.03;1.50;;;;;;;11.68;100.00;100814.38;4908923;29;20096;-81
2022/05/21 07:31:44;;;;;;;7.78;1.90;;;;;;;11.89;100.00;100831.47;4900931;29;20035;-79
2022/05/21 07:34:10;;;;;;;5.95;1.73;;;;;;;11.70;100.00;100808.81;4885970;29;20032;-80
2022/05/21 07:36:36;;;;;;;5.10;1.80;;;;;;;11.87;100.00;100833.53;4884691;29;20028;-79
2022/05/21 07:39:02;;;;;;;5.60;1.70;;;;;;;11.71;100.00;100808.59;4916858;29;20043;-79
2022/05/21 07:41:27;;;;;;;8.52;1.70;;;;;;;11.89;100.00;100836.84;4917166;29;20107;-80
2022/05/21 07:43:53;;;;;;;7.30;1.48;;;;;;;11.89;100.00;100834.16;4899985;29;20036;-80
2022/05/21 07:46:18;;;;;;;5.45;1.42;;;;;;;11.76;100.00;100837.66;4898736;29;20526;-80
2022/05/21 07:48:45;;;;;;;7.15;1.70;;;;;;;11.71;100.00;100843.63;4899599;29;20510;-79
2022/05/21 07:51:10;;;;;;;8.07;1.50;;;;;;;11.65;100.00;100843.63;4899487;29;20031;-79
2022/05/21 07:53:39;;;;;;;6.22;1.45;;;;;;;11.50;100.00;100849.22;4915009;29;20063;-79
2022/05/21 07:56:05;;;;;;;9.07;1.50;;;;;;;11.13;100.00;100800.22;4901838;29;20028;-80
2022/05/21 07:58:31;;;;;;;5.97;1.25;;;;;;;11.40;100.00;100857.69;4921061;29;20028;-81
2022/05/21 08:00:57;;;;;;;4.65;1.00;;;;;;;11.21;100.00;100843.13;4918522;29;20084;-81
2022/05/21 08:03:23;;;;;;;5.85;1.10;;;;;;;11.09;100.00;100828.56;4902656;29;20463;-81
2022/05/21 08:06:05;;;;;;;4.03;1.27;;;;;;;10.99;100.00;100847.81;4917520;29;20465;-81
2022/05/21 08:08:30;;;;;;;4.15;1.35;;;;;;;10.93;100.00;100848.59;4924894;29;20091;-81
2022/05/21 08:10:56;;;;;;;5.47;0.90;;;;;;;10.98;100.00;100864.97;4911085;29;20028;-80
2022/05/21 08:13:21;;;;;;;3.47;1.00;;;;;;;11.02;100.00;100857.31;5057456;23;20067;-81
2022/05/21 08:15:47;;;;;;;2.70;1.00;;;;;;;11.09;100.00;100868.13;4929813;29;20039;-80
2022/05/21 08:18:13;;;;;;;3.67;0.90;;;;;;;11.12;100.00;100862.34;4923173;29;20391;-81
2022/05/21 08:20:40;;;;;;;3.55;0.80;;;;;;;11.14;100.00;100873.75;4904472;29;20103;-81
2022/05/21 08:28:41;;;;;;;3.28;0.90;;;;;;;10.97;100.00;100860.63;4906843;29;20047;-80
2022/05/21 08:31:06;;;;;;;3.60;0.90;;;;;;;11.02;100.00;100851.94;4890775;29;20123;-79
2022/05/21 08:33:32;;;;;;;5.57;1.13;;;;;;;11.18;100.00;100866.94;4918508;29;20139;-79
2022/05/21 08:35:57;;;;;;;3.55;1.00;;;;;;;10.84;100.00;100822.06;4920351;29;20032;-80
2022/05/21 08:38:22;;;;;;;2.75;0.70;;;;;;;11.15;100.00;100861.94;4919245;29;20177;-79
2022/05/21 08:41:02;;;;;;;3.33;0.93;;;;;;;11.01;100.00;100848.44;4918673;29;20036;-80
2022/05/21 08:43:51;;;;;;;3.78;0.95;;;;;;;10.94;100.00;100842.19;4918686;29;20046;-79
2022/05/21 08:46:31;;;;;;;4.55;1.15;;;;;;;11.03;100.00;100856.31;4915654;29;20027;-80
2022/05/21 08:49:04;;;;;;;4.05;1.17;;;;;;;11.11;100.00;100877.66;4915772;29;20135;-79
2022/05/21 08:51:41;;;;;;;6.93;1.30;;;;;;;11.04;100.00;100863.34;4919426;29;20087;-79
2022/05/21 08:54:07;;;;;;;3.88;1.33;;;;;;;10.80;100.00;100849.38;4917063;29;20469;-79
2022/05/21 08:56:33;;;;;;;4.75;1.30;;;;;;;10.74;100.00;100830.50;4918207;29;20032;-79
2022/05/21 08:59:08;;;;;;;3.17;1.10;;;;;;;10.93;100.00;100861.25;4917532;29;20370;-79
2022/05/21 09:01:37;;;;;;;5.85;1.02;;;;;;;10.99;100.00;100881.97;4919534;29;20395;-79
2022/05/21 09:04:04;;;;;;;3.70;0.80;;;;;;;10.86;100.00;100858.53;4917044;29;20063;-79
2022/05/21 09:06:51;;;;;;;6.32;1.10;;;;;;;11.18;100.00;100883.91;4917534;29;20043;-79
2022/05/21 09:09:45;;;;;;;2.53;0.80;;;;;;;11.11;100.00;100887.63;4917777;29;20033;-79
2022/05/21 09:12:18;;;;;;;1.67;0.47;;;;;;;10.92;100.00;100890.00;4920793;29;20066;-79
2022/05/21 09:14:46;;;;;;;1.13;0.40;;;;;;;10.75;100.00;100857.19;4937547;29;20019;-79
2022/05/21 09:17:21;;;;;;;4.65;0.57;;;;;;;10.96;100.00;100885.91;4920476;29;20035;-79
2022/05/21 09:19:56;;;;;;;6.90;1.10;;;;;;;10.69;100.00;100843.72;4920954;29;20019;-79
2022/05/21 09:22:22;;;;;;;3.03;0.68;;;;;;;10.92;100.00;100886.50;4916855;29;20054;-79
2022/05/21 09:24:53;;;;;;;2.03;0.70;;;;;;;10.69;100.00;100881.38;4930980;29;20454;-79
2022/05/21 09:27:39;;;;;;;1.92;0.55;;;;;;;10.78;100.00;100899.88;4912171;29;20039;-80
2022/05/21 09:30:25;;;;;;;5.40;0.80;;;;;;;10.73;100.00;100896.97;4922053;29;20051;-80
2022/05/21 09:32:54;;;;;;;2.75;0.70;;;;;;;10.84;100.00;100897.44;4938624;29;20458;-80
2022/05/21 09:35:25;;;;;;;1.98;0.57;;;;;;;10.84;100.00;100900.13;4920584;29;20031;-80
2022/05/21 09:37:51;;;;;;;3.80;0.55;;;;;;;10.81;100.00;100896.78;4918134;29;20118;-80
2022/05/21 09:40:35;;;;;;;2.67;0.75;;;;;;;10.83;100.00;100902.00;4918980;29;20156;-79
2022/05/21 09:46:13;;;;;;;2.45;0.70;;;;;;;10.99;100.00;100909.75;4942110;29;20094;-79
2022/05/21 09:48:38;;;;;;;3.10;0.73;;;;;;;10.96;100.00;100909.28;4922499;29;20445;-80
2022/05/21 09:51:04;;;;;;;0.90;0.52;;;;;;;10.94;100.00;100908.66;4901882;29;20187;-79
2022/05/21 09:53:38;;;;;;;1.90;0.68;;;;;;;10.88;100.00;100898.69;4919105;29;20114;-79
2022/05/21 09:56:16;;;;;;;1.07;0.50;;;;;;;10.95;100.00;100913.84;4936454;29;20420;-79
2022/05/21 09:58:43;;;;;;;1.52;0.60;;;;;;;10.74;100.00;100874.38;4934199;29;20035;-79
2022/05/21 10:01:14;;;;;;;1.65;0.70;;;;;;;11.00;100.00;100918.66;4917030;29;20028;-79
2022/05/21 10:03:39;;;;;;;4.10;1.10;;;;;;;11.10;100.00;100929.06;4917450;29;20023;-80
2022/05/21 10:06:15;;;;;;;1.58;0.60;;;;;;;11.17;100.00;100929.91;4919285;29;20368;-80
2022/05/21 10:11:36;;;;;;;3.13;0.65;;;;;;;11.06;100.00;100915.16;4919327;29;20042;-80
2022/05/21 10:14:10;;;;;;;2.40;0.82;;;;;;;11.17;100.00;100909.19;4922003;29;20132;-81
2022/05/21 10:16:51;;;;;;;3.55;0.80;;;;;;;11.05;100.00;100921.56;4939337;29;20059;-81
2022/05/21 10:19:30;;;;;;;3.53;0.90;;;;;;;11.36;100.00;100928.34;4933003;29;20023;-80
2022/05/21 10:22:18;;;;;;;2.55;0.88;;;;;;;11.24;100.00;100936.97;4938443;29;20031;-81
2022/05/21 10:24:52;;;;;;;2.35;0.90;;;;;;;11.31;100.00;100941.56;4937894;29;20079;-80
2022/05/21 10:27:33;;;;;;;2.67;0.90;;;;;;;11.20;100.00;100943.81;4909775;29;20042;-82
2022/05/21 10:30:17;;;;;;;1.08;0.63;;;;;;;11.08;100.00;100918.47;4918252;29;20105;-81
2022/05/21 10:32:42;;;;;;;1.90;0.82;;;;;;;11.41;100.00;100947.41;4923342;29;20399;-81
2022/05/21 10:35:14;;;;;;;5.97;1.50;;;;;;;11.53;100.00;100945.81;4916664;29;20147;-80
2022/05/21 10:38:03;;;;;;;2.92;0.95;;;;;;;11.69;100.00;100960.81;4910710;29;20115;-81
2022/05/21 10:40:37;;;;;;;6.25;1.25;;;;;;;11.83;100.00;100958.97;4914353;29;20130;-80
2022/05/21 10:43:28;;;;;;;5.57;1.10;;;;;;;11.75;100.00;100941.09;4912412;29;20051;-80
2022/05/21 10:45:59;;;;;;;3.42;0.95;;;;;;;11.77;100.00;100950.66;4942839;29;20031;-82
2022/05/21 10:48:33;;;;;;;6.13;1.10;;;;;;;11.86;100.00;100956.72;4920015;29;20023;-80
2022/05/21 10:51:22;;;;;;;4.90;1.02;;;;;;;11.99;100.00;100958.63;4936799;29;20474;-80
2022/05/21 10:54:12;;;;;;;4.82;1.30;;;;;;;11.91;100.00;100962.31;4938042;29;20123;-80
2022/05/21 10:56:49;;;;;;;3.20;0.90;;;;;;;11.86;100.00;100972.09;4939028;29;20056;-81
2022/05/21 10:59:57;;;;;;;4.22;1.10;;;;;;;12.03;100.00;100977.94;4934025;29;20339;-80
2022/05/21 11:02:57;;;;;;;4.22;1.10;;;;;;;12.05;100.00;100976.66;4927454;29;20067;-80
2022/05/21 11:05:44;;;;;;;3.65;1.20;;;;;;;12.14;100.00;100978.13;4937578;29;20431;-80
2022/05/21 11:08:15;;;;;;;2.80;1.20;;;;;;;12.31;100.00;100981.28;4919455;29;20044;-79
2022/05/21 11:10:45;;;;;;;5.72;1.13;;;;;;;12.36;100.00;100980.66;4936414;29;20047;-80
2022/05/21 11:13:57;;;;;;;6.05;1.13;;;;;;;12.27;100.00;100977.31;5144399;23;20070;-78
2022/05/21 11:17:04;;;;;;;3.95;0.90;;;;;;;12.12;100.00;100982.94;4884756;29;20127;-79
2022/05/21 11:19:37;;;;;;;2.85;0.80;;;;;;;12.09;100.00;100982.50;4886162;29;20056;-79
2022/05/21 11:22:09;;;;;;;5.57;1.08;;;;;;;11.94;100.00;100942.22;4899688;29;20494;-79
2022/05/21 11:24:45;;;;;;;1.77;0.93;;;;;;;12.04;100.00;100958.81;4908628;29;20063;-79
2022/05/21 11:27:28;;;;;;;3.45;0.80;;;;;;;12.32;100.00;100990.22;4899366;29;20344;-79
2022/05/21 11:30:04;;;;;;;3.80;0.75;;;;;;;12.30;100.00;100994.97;4894036;29;20031;-77
2022/05/21 11:38:09;;;;;;;3.45;1.10;;;;;;;12.30;100.00;100976.91;4897738;29;20043;-78
2022/05/21 11:40:50;;;;;;;2.60;0.80;;;;;;;12.32;100.00;101003.72;4894858;29;20029;-78
2022/05/21 11:43:20;;;;;;;3.35;0.80;;;;;;;12.48;100.00;101011.38;4912185;29;20367;-78
2022/05/21 11:46:07;;;;;;;5.25;0.93;;;;;;;12.41;100.00;101002.44;4881724;29;20534;-77
2022/05/21 11:48:32;;;;;;;2.15;1.02;;;;;;;12.44;100.00;101002.03;4898407;29;20028;-76
2022/05/21 11:51:16;;;;;;;2.45;0.90;;;;;;;12.52;100.00;101009.97;4901771;29;20032;-77
2022/05/21 11:53:42;;;;;;;3.03;0.70;;;;;;;12.40;100.00;101015.13;4899825;29;20032;-78
2022/05/21 11:56:10;;;;;;;4.85;0.80;;;;;;;12.41;100.00;101024.03;4900685;29;20035;-78
2022/05/21 11:59:00;;;;;;;5.20;0.80;;;;;;;12.41;100.00;101034.84;4885489;29;20096;-80